SCHC weather

Chicureo Airport
Santiago, Santiago Metropolitan Region, Chile

Public forecast

Using degrees Celsius for public forecast. Weather courtesy of forecast.io.

Closest aviation weather report (METAR) to Chicureo Airport

Closest report is Comodoro Arturo Merino Benítez International Airport, 10.2 nm (19.0 km) SW. Retrieved 2020/04/04 16:00 UTC (52 minutes ago):

SCEL 041600Z 16007KT 110V220 9999 SCT180 BKN210 24/09 Q1010 NOSIG

Closest aviation forecast (TAF) to Chicureo Airport

Closest forecast is Comodoro Arturo Merino Benítez International Airport, 10.2 nm (19.0 km) SW. Retrieved 2020/04/04 12:00 UTC (5 hours ago):

TAF SCEL 041013Z 0412/0512 15004KT 8000 NSC TX27/0418Z TN10/0511Z TEMPO 0412/0415 5000 HZ FEW180 SCT200 BECMG 0417/0419 21015KT CAVOK BECMG 0502/0504 18005KT TEMPO 0510/0512 6000 NSC